sensor_id;sensor_type;location;lat;lon;timestamp;pressure;altitude;pressure_sealevel;temperature;humidity
29371;BME280;16357;52.188;7.838;2023-02-12T00:01:22;103003.50;;;11.17;63.55
29371;BME280;16357;52.188;7.838;2023-02-12T00:03:49;102996.31;;;11.18;63.31
29371;BME280;16357;52.188;7.838;2023-02-12T00:06:16;102991.91;;;11.17;63.39
29371;BME280;16357;52.188;7.838;2023-02-12T00:08:42;102994.59;;;11.17;63.40
29371;BME280;16357;52.188;7.838;2023-02-12T00:11:17;103001.69;;;11.18;63.37
29371;BME280;16357;52.188;7.838;2023-02-12T00:13:44;103003.50;;;11.17;63.44
29371;BME280;16357;52.188;7.838;2023-02-12T00:16:13;102999.00;;;11.18;63.37
29371;BME280;16357;52.188;7.838;2023-02-12T00:18:40;102994.59;;;11.17;63.53
29371;BME280;16357;52.188;7.838;2023-02-12T00:21:07;102996.31;;;11.18;63.50
29371;BME280;16357;52.188;7.838;2023-02-12T00:23:35;102996.31;;;11.18;63.35
29371;BME280;16357;52.188;7.838;2023-02-12T00:26:06;103008.78;;;11.19;63.67
29371;BME280;16357;52.188;7.838;2023-02-12T00:28:34;103003.41;;;11.19;63.38
29371;BME280;16357;52.188;7.838;2023-02-12T00:31:11;103005.13;;;11.20;63.46
29371;BME280;16357;52.188;7.838;2023-02-12T00:33:38;103002.53;;;11.18;63.62
29371;BME280;16357;52.188;7.838;2023-02-12T00:36:06;102999.75;;;11.20;63.23
29371;BME280;16357;52.188;7.838;2023-02-12T00:38:32;103002.44;;;11.20;63.54
29371;BME280;16357;52.188;7.838;2023-02-12T00:40:59;103001.47;;;11.21;63.51
29371;BME280;16357;52.188;7.838;2023-02-12T00:43:26;103001.47;;;11.21;63.45
29371;BME280;16357;52.188;7.838;2023-02-12T00:45:52;103005.91;;;11.22;63.40
29371;BME280;16357;52.188;7.838;2023-02-12T00:48:19;103009.44;;;11.23;63.32
29371;BME280;16357;52.188;7.838;2023-02-12T00:50:47;103002.22;;;11.23;63.62
29371;BME280;16357;52.188;7.838;2023-02-12T00:53:15;103008.44;;;11.24;63.39
29371;BME280;16357;52.188;7.838;2023-02-12T00:55:41;103012.97;;;11.23;63.25
29371;BME280;16357;52.188;7.838;2023-02-12T00:58:08;103009.31;;;11.24;63.12
29371;BME280;16357;52.188;7.838;2023-02-12T01:00:35;103013.94;;;11.22;63.22
29371;BME280;16357;52.188;7.838;2023-02-12T01:03:01;103015.75;;;11.21;63.11
29371;BME280;16357;52.188;7.838;2023-02-12T01:05:29;103013.06;;;11.21;63.39
29371;BME280;16357;52.188;7.838;2023-02-12T01:07:56;103020.28;;;11.21;63.17
29371;BME280;16357;52.188;7.838;2023-02-12T01:10:22;103019.41;;;11.20;63.32
29371;BME280;16357;52.188;7.838;2023-02-12T01:12:49;103023.06;;;11.19;63.24
29371;BME280;16357;52.188;7.838;2023-02-12T01:15:16;103019.53;;;11.19;63.67
29371;BME280;16357;52.188;7.838;2023-02-12T01:17:43;103017.78;;;11.18;63.50
29371;BME280;16357;52.188;7.838;2023-02-12T01:20:14;103020.47;;;11.18;63.29
29371;BME280;16357;52.188;7.838;2023-02-12T01:22:42;103019.72;;;11.16;63.24
29371;BME280;16357;52.188;7.838;2023-02-12T01:25:09;103020.69;;;11.15;63.18
29371;BME280;16357;52.188;7.838;2023-02-12T01:27:35;103010.03;;;11.13;63.35
29371;BME280;16357;52.188;7.838;2023-02-12T01:30:03;103014.69;;;11.11;63.41
29371;BME280;16357;52.188;7.838;2023-02-12T01:32:29;103017.47;;;11.10;63.50
29371;BME280;16357;52.188;7.838;2023-02-12T01:34:56;103018.44;;;11.09;63.42
29371;BME280;16357;52.188;7.838;2023-02-12T01:37:22;103011.53;;;11.05;63.51
29371;BME280;16357;52.188;7.838;2023-02-12T01:39:48;103021.44;;;11.04;63.51
29371;BME280;16357;52.188;7.838;2023-02-12T01:42:15;103019.69;;;11.03;63.69
29371;BME280;16357;52.188;7.838;2023-02-12T01:45:17;103010.91;;;11.01;63.51
29371;BME280;16357;52.188;7.838;2023-02-12T01:47:31;103009.16;;;11.00;63.61
29371;BME280;16357;52.188;7.838;2023-02-12T01:49:58;103013.66;;;10.99;63.60
29371;BME280;16357;52.188;7.838;2023-02-12T01:52:27;103011.97;;;10.98;63.65
29371;BME280;16357;52.188;7.838;2023-02-12T01:54:58;103009.28;;;10.98;63.67
29371;BME280;16357;52.188;7.838;2023-02-12T01:57:27;103005.81;;;10.96;63.72
29371;BME280;16357;52.188;7.838;2023-02-12T01:59:57;103015.59;;;10.97;63.69
29371;BME280;16357;52.188;7.838;2023-02-12T02:02:26;103013.88;;;10.96;63.75
29371;BME280;16357;52.188;7.838;2023-02-12T02:04:57;103019.25;;;10.96;63.60
29371;BME280;16357;52.188;7.838;2023-02-12T02:07:24;103012.16;;;10.95;63.91
29371;BME280;16357;52.188;7.838;2023-02-12T02:09:51;103013.88;;;10.96;63.86
29371;BME280;16357;52.188;7.838;2023-02-12T02:12:18;103014.72;;;10.97;63.61
29371;BME280;16357;52.188;7.838;2023-02-12T02:15:03;103005.81;;;10.96;63.63
29371;BME280;16357;52.188;7.838;2023-02-12T02:23:38;103002.28;;;10.96;63.54
29371;BME280;16357;52.188;7.838;2023-02-12T02:34:39;102997.97;;;10.93;63.61
29371;BME280;16357;52.188;7.838;2023-02-12T02:37:25;102990.88;;;10.92;63.57
29371;BME280;16357;52.188;7.838;2023-02-12T02:40:21;102992.69;;;10.92;63.51
29371;BME280;16357;52.188;7.838;2023-02-12T02:43:00;102987.44;;;10.90;63.45
29371;BME280;16357;52.188;7.838;2023-02-12T02:45:45;102989.38;;;10.88;63.50
29371;BME280;16357;52.188;7.838;2023-02-12T02:48:42;102983.22;;;10.86;63.90
29371;BME280;16357;52.188;7.838;2023-02-12T02:51:11;102985.06;;;10.86;63.58
29371;BME280;16357;52.188;7.838;2023-02-12T02:53:44;102988.69;;;10.85;63.66
29371;BME280;16357;52.188;7.838;2023-02-12T02:56:15;102987.97;;;10.83;63.70
29371;BME280;16357;52.188;7.838;2023-02-12T02:58:55;102988.06;;;10.81;63.92
29371;BME280;16357;52.188;7.838;2023-02-12T03:01:29;102980.22;;;10.78;63.89
29371;BME280;16357;52.188;7.838;2023-02-12T03:04:07;102985.56;;;10.78;63.91
29371;BME280;16357;52.188;7.838;2023-02-12T03:09:21;102985.66;;;10.76;63.88
29371;BME280;16357;52.188;7.838;2023-02-12T03:11:49;102987.63;;;10.74;63.73
29371;BME280;16357;52.188;7.838;2023-02-12T03:14:27;102977.72;;;10.75;63.73
29371;BME280;16357;52.188;7.838;2023-02-12T03:16:59;102983.09;;;10.75;64.02
29371;BME280;16357;52.188;7.838;2023-02-12T03:19:31;102986.72;;;10.74;64.15
29371;BME280;16357;52.188;7.838;2023-02-12T03:22:03;102982.25;;;10.74;63.75
29371;BME280;16357;52.188;7.838;2023-02-12T03:24:36;102981.34;;;10.74;63.95
29371;BME280;16357;52.188;7.838;2023-02-12T03:27:08;102985.03;;;10.73;63.80
29371;BME280;16357;52.188;7.838;2023-02-12T03:29:36;102986.00;;;10.72;63.90
29371;BME280;16357;52.188;7.838;2023-02-12T03:32:33;102991.25;;;10.73;63.93
29371;BME280;16357;52.188;7.838;2023-02-12T03:35:22;102990.38;;;10.73;63.63
29371;BME280;16357;52.188;7.838;2023-02-12T03:38:19;102985.09;;;10.71;63.84
29371;BME280;16357;52.188;7.838;2023-02-12T03:43:30;102988.00;;;10.68;63.96
29371;BME280;16357;52.188;7.838;2023-02-12T03:46:07;102993.38;;;10.68;63.98
29371;BME280;16357;52.188;7.838;2023-02-12T03:51:24;102998.75;;;10.68;64.09
29371;BME280;16357;52.188;7.838;2023-02-12T03:53:55;102996.19;;;10.67;63.99
29371;BME280;16357;52.188;7.838;2023-02-12T03:56:24;102998.84;;;10.67;64.19
29371;BME280;16357;52.188;7.838;2023-02-12T03:58:52;102996.19;;;10.67;64.08
29371;BME280;16357;52.188;7.838;2023-02-12T04:01:19;102998.09;;;10.65;64.05
29371;BME280;16357;52.188;7.838;2023-02-12T04:03:45;103005.16;;;10.66;64.24
29371;BME280;16357;52.188;7.838;2023-02-12T04:06:24;103010.53;;;10.66;64.16
29371;BME280;16357;52.188;7.838;2023-02-12T04:08:56;103004.31;;;10.65;64.31
29371;BME280;16357;52.188;7.838;2023-02-12T04:14:13;103003.34;;;10.66;63.95
29371;BME280;16357;52.188;7.838;2023-02-12T04:17:07;103006.78;;;10.68;64.21
29371;BME280;16357;52.188;7.838;2023-02-12T04:25:14;103024.72;;;10.68;64.14
29371;BME280;16357;52.188;7.838;2023-02-12T04:28:00;103024.72;;;10.68;64.08
29371;BME280;16357;52.188;7.838;2023-02-12T04:30:36;103024.72;;;10.68;64.07
29371;BME280;16357;52.188;7.838;2023-02-12T04:33:06;103028.38;;;10.67;64.07
29371;BME280;16357;52.188;7.838;2023-02-12T04:35:41;103037.38;;;10.66;64.11
29371;BME280;16357;52.188;7.838;2023-02-12T04:40:40;103034.81;;;10.64;63.94
29371;BME280;16357;52.188;7.838;2023-02-12T04:43:08;103036.66;;;10.64;64.38
29371;BME280;16357;52.188;7.838;2023-02-12T04:45:35;103037.50;;;10.64;64.60
29371;BME280;16357;52.188;7.838;2023-02-12T04:48:03;103043.72;;;10.65;64.36
29371;BME280;16357;52.188;7.838;2023-02-12T04:50:38;103041.91;;;10.65;64.15
29371;BME280;16357;52.188;7.838;2023-02-12T04:53:05;103046.41;;;10.65;64.15
29371;BME280;16357;52.188;7.838;2023-02-12T04:55:32;103049.09;;;10.65;64.13
29371;BME280;16357;52.188;7.838;2023-02-12T04:57:59;103043.72;;;10.65;64.16
29371;BME280;16357;52.188;7.838;2023-02-12T05:00:25;103039.34;;;10.64;64.20
29371;BME280;16357;52.188;7.838;2023-02-12T05:02:51;103037.50;;;10.64;63.92
29371;BME280;16357;52.188;7.838;2023-02-12T05:05:19;103047.38;;;10.64;64.19
29371;BME280;16357;52.188;7.838;2023-02-12T05:07:46;103030.50;;;10.62;64.06
29371;BME280;16357;52.188;7.838;2023-02-12T05:10:12;103039.41;;;10.62;64.09
29371;BME280;16357;52.188;7.838;2023-02-12T05:12:39;103035.03;;;10.61;64.15
29371;BME280;16357;52.188;7.838;2023-02-12T05:15:05;103044.88;;;10.61;64.38
29371;BME280;16357;52.188;7.838;2023-02-12T05:17:32;103029.75;;;10.60;64.22
29371;BME280;16357;52.188;7.838;2023-02-12T05:19:58;103038.78;;;10.59;63.96
29371;BME280;16357;52.188;7.838;2023-02-12T05:22:25;103041.47;;;10.59;64.19
29371;BME280;16357;52.188;7.838;2023-02-12T05:24:51;103038.00;;;10.57;64.04
29371;BME280;16357;52.188;7.838;2023-02-12T05:27:18;103038.00;;;10.57;64.19
29371;BME280;16357;52.188;7.838;2023-02-12T05:29:44;103040.78;;;10.55;64.08
29371;BME280;16357;52.188;7.838;2023-02-12T05:32:10;103045.28;;;10.54;64.33
29371;BME280;16357;52.188;7.838;2023-02-12T05:34:37;103051.63;;;10.53;64.28
29371;BME280;16357;52.188;7.838;2023-02-12T05:37:03;103047.19;;;10.52;64.35
29371;BME280;16357;52.188;7.838;2023-02-12T05:39:30;103048.94;;;10.53;64.41
29371;BME280;16357;52.188;7.838;2023-02-12T05:41:56;103046.34;;;10.52;64.51
29371;BME280;16357;52.188;7.838;2023-02-12T05:44:23;103047.19;;;10.52;64.41
29371;BME280;16357;52.188;7.838;2023-02-12T05:46:49;103045.28;;;10.54;64.44
29371;BME280;16357;52.188;7.838;2023-02-12T05:49:16;103044.44;;;10.54;64.45
29371;BME280;16357;52.188;7.838;2023-02-12T05:51:42;103047.97;;;10.54;64.64
29371;BME280;16357;52.188;7.838;2023-02-12T05:54:09;103051.50;;;10.55;64.54
29371;BME280;16357;52.188;7.838;2023-02-12T05:56:40;103046.13;;;10.55;64.47
29371;BME280;16357;52.188;7.838;2023-02-12T05:59:13;103052.34;;;10.55;64.21
29371;BME280;16357;52.188;7.838;2023-02-12T06:01:41;103057.72;;;10.55;64.61
29371;BME280;16357;52.188;7.838;2023-02-12T06:04:13;103058.50;;;10.58;64.49
29371;BME280;16357;52.188;7.838;2023-02-12T06:06:40;103058.50;;;10.58;64.36
29371;BME280;16357;52.188;7.838;2023-02-12T06:09:11;103061.19;;;10.58;64.31
29371;BME280;16357;52.188;7.838;2023-02-12T06:11:38;103054.97;;;10.57;64.40
29371;BME280;16357;52.188;7.838;2023-02-12T06:14:07;103066.56;;;10.58;64.48
29371;BME280;16357;52.188;7.838;2023-02-12T06:16:34;103054.97;;;10.57;64.30
29371;BME280;16357;52.188;7.838;2023-02-12T06:19:02;103059.34;;;10.58;64.32
29371;BME280;16357;52.188;7.838;2023-02-12T06:21:30;103054.97;;;10.57;64.39
29371;BME280;16357;52.188;7.838;2023-02-12T06:23:57;103052.34;;;10.55;64.18
29371;BME280;16357;52.188;7.838;2023-02-12T06:26:24;103059.47;;;10.57;64.40
29371;BME280;16357;52.188;7.838;2023-02-12T06:28:51;103055.03;;;10.55;64.35
29371;BME280;16357;52.188;7.838;2023-02-12T06:33:49;103057.72;;;10.55;64.31
29371;BME280;16357;52.188;7.838;2023-02-12T06:36:16;103059.47;;;10.57;64.25
29371;BME280;16357;52.188;7.838;2023-02-12T06:38:43;103063.09;;;10.55;64.33
29371;BME280;16357;52.188;7.838;2023-02-12T06:41:09;103070.22;;;10.57;64.22
29371;BME280;16357;52.188;7.838;2023-02-12T06:43:36;103066.75;;;10.54;64.35
29371;BME280;16357;52.188;7.838;2023-02-12T06:46:03;103078.47;;;10.53;64.23
29371;BME280;16357;52.188;7.838;2023-02-12T06:48:30;103080.16;;;10.54;64.60
29371;BME280;16357;52.188;7.838;2023-02-12T06:51:17;103073.94;;;10.54;64.45
29371;BME280;16357;52.188;7.838;2023-02-12T06:53:44;103080.25;;;10.53;64.39
29371;BME280;16357;52.188;7.838;2023-02-12T06:56:11;103080.25;;;10.53;64.46
29371;BME280;16357;52.188;7.838;2023-02-12T06:58:45;103083.81;;;10.53;64.23
29371;BME280;16357;52.188;7.838;2023-02-12T07:01:19;103086.50;;;10.53;64.24
29371;BME280;16357;52.188;7.838;2023-02-12T07:03:48;103091.88;;;10.53;64.42
29371;BME280;16357;52.188;7.838;2023-02-12T07:06:15;103092.75;;;10.54;64.30
29371;BME280;16357;52.188;7.838;2023-02-12T07:08:42;103095.50;;;10.52;64.37
29371;BME280;16357;52.188;7.838;2023-02-12T07:11:08;103099.81;;;10.55;64.15
29371;BME280;16357;52.188;7.838;2023-02-12T07:13:35;103102.63;;;10.53;64.62
29371;BME280;16357;52.188;7.838;2023-02-12T07:16:07;103098.97;;;10.54;64.36
29371;BME280;16357;52.188;7.838;2023-02-12T07:18:34;103104.31;;;10.54;64.72
29371;BME280;16357;52.188;7.838;2023-02-12T07:21:02;103097.13;;;10.55;64.65
29371;BME280;16357;52.188;7.838;2023-02-12T07:23:28;103102.41;;;10.57;64.70
29371;BME280;16357;52.188;7.838;2023-02-12T07:25:59;103108.56;;;10.59;64.56
29371;BME280;16357;52.188;7.838;2023-02-12T07:28:26;103109.41;;;10.59;64.74
29371;BME280;16357;52.188;7.838;2023-02-12T07:30:53;103106.63;;;10.61;64.83
29371;BME280;16357;52.188;7.838;2023-02-12T07:33:20;103108.34;;;10.62;64.78
29371;BME280;16357;52.188;7.838;2023-02-12T07:35:46;103109.13;;;10.64;64.69
29371;BME280;16357;52.188;7.838;2023-02-12T07:38:12;103112.53;;;10.66;64.82
29371;BME280;16357;52.188;7.838;2023-02-12T07:40:39;103118.78;;;10.66;64.47
29371;BME280;16357;52.188;7.838;2023-02-12T07:43:05;103117.72;;;10.69;64.53
29371;BME280;16357;52.188;7.838;2023-02-12T07:45:31;103121.16;;;10.71;64.72
29371;BME280;16357;52.188;7.838;2023-02-12T07:47:58;103130.84;;;10.73;64.67
29371;BME280;16357;52.188;7.838;2023-02-12T07:50:24;103135.16;;;10.76;64.63
29371;BME280;16357;52.188;7.838;2023-02-12T07:52:51;103134.97;;;10.79;64.46
29371;BME280;16357;52.188;7.838;2023-02-12T07:55:17;103138.41;;;10.81;64.53
29371;BME280;16357;52.188;7.838;2023-02-12T07:57:44;103141.88;;;10.83;64.38
29371;BME280;16357;52.188;7.838;2023-02-12T08:00:11;103138.22;;;10.84;64.26
29371;BME280;16357;52.188;7.838;2023-02-12T08:02:38;103148.75;;;10.87;64.27
29371;BME280;16357;52.188;7.838;2023-02-12T08:05:05;103139.75;;;10.88;64.26
29371;BME280;16357;52.188;7.838;2023-02-12T08:07:31;103142.22;;;10.91;64.46
29371;BME280;16357;52.188;7.838;2023-02-12T08:09:58;103146.53;;;10.94;64.32
29371;BME280;16357;52.188;7.838;2023-02-12T08:12:25;103139.13;;;10.97;64.29
29371;BME280;16357;52.188;7.838;2023-02-12T08:14:51;103150.66;;;10.99;64.29
29371;BME280;16357;52.188;7.838;2023-02-12T08:17:19;103140.69;;;11.02;64.10
29371;BME280;16357;52.188;7.838;2023-02-12T08:19:45;103147.66;;;11.04;64.05
29371;BME280;16357;52.188;7.838;2023-02-12T08:22:12;103148.44;;;11.06;64.14
29371;BME280;16357;52.188;7.838;2023-02-12T08:24:38;103147.38;;;11.09;64.04
29371;BME280;16357;52.188;7.838;2023-02-12T08:27:04;103161.53;;;11.11;64.00
29371;BME280;16357;52.188;7.838;2023-02-12T08:29:31;103152.53;;;11.12;63.87
29371;BME280;16357;52.188;7.838;2023-02-12T08:32:00;103164.91;;;11.14;63.75
29371;BME280;16357;52.188;7.838;2023-02-12T08:34:29;103163.09;;;11.15;63.75
29371;BME280;16357;52.188;7.838;2023-02-12T08:36:56;103169.31;;;11.15;63.64
29371;BME280;16357;52.188;7.838;2023-02-12T08:39:24;103172.97;;;11.14;63.59
29371;BME280;16357;52.188;7.838;2023-02-12T08:41:55;103183.59;;;11.16;63.53
29371;BME280;16357;52.188;7.838;2023-02-12T08:44:23;103172.13;;;11.14;63.75
29371;BME280;16357;52.188;7.838;2023-02-12T08:46:51;103181.03;;;11.14;63.54
29371;BME280;16357;52.188;7.838;2023-02-12T08:49:20;103176.59;;;11.13;63.63
29371;BME280;16357;52.188;7.838;2023-02-12T08:51:50;103184.66;;;11.13;63.80
29371;BME280;16357;52.188;7.838;2023-02-12T08:54:19;103172.97;;;11.14;63.80
29371;BME280;16357;52.188;7.838;2023-02-12T08:56:46;103182.88;;;11.14;63.91
29371;BME280;16357;52.188;7.838;2023-02-12T08:59:13;103185.56;;;11.14;63.88
29371;BME280;16357;52.188;7.838;2023-02-12T09:01:41;103185.56;;;11.14;64.04
29371;BME280;16357;52.188;7.838;2023-02-12T09:04:16;103183.59;;;11.16;64.05
29371;BME280;16357;52.188;7.838;2023-02-12T09:06:44;103180.19;;;11.14;64.14
29371;BME280;16357;52.188;7.838;2023-02-12T09:09:12;103188.25;;;11.14;64.01
29371;BME280;16357;52.188;7.838;2023-02-12T09:11:38;103191.88;;;11.13;64.25
29371;BME280;16357;52.188;7.838;2023-02-12T09:14:07;103202.63;;;11.13;64.24
29371;BME280;16357;52.188;7.838;2023-02-12T09:16:36;103196.47;;;11.11;64.33
29371;BME280;16357;52.188;7.838;2023-02-12T09:19:03;103201.97;;;11.09;64.59
29371;BME280;16357;52.188;7.838;2023-02-12T09:21:29;103200.22;;;11.08;64.72
29371;BME280;16357;52.188;7.838;2023-02-12T09:23:56;103198.50;;;11.07;64.53
29371;BME280;16357;52.188;7.838;2023-02-12T09:26:24;103199.38;;;11.08;65.11
29371;BME280;16357;52.188;7.838;2023-02-12T09:28:53;103202.03;;;11.08;65.21
29371;BME280;16357;52.188;7.838;2023-02-12T09:31:30;103202.81;;;11.10;65.00
29371;BME280;16357;52.188;7.838;2023-02-12T09:34:00;103202.81;;;11.10;65.14
29371;BME280;16357;52.188;7.838;2023-02-12T09:36:27;103207.22;;;11.11;65.22
29371;BME280;16357;52.188;7.838;2023-02-12T09:38:54;103205.31;;;11.13;65.28
29371;BME280;16357;52.188;7.838;2023-02-12T09:41:39;103209.72;;;11.14;65.31
29371;BME280;16357;52.188;7.838;2023-02-12T09:52:27;103216.41;;;11.21;65.34
29371;BME280;16357;52.188;7.838;2023-02-12T09:54:55;103224.38;;;11.23;65.16
29371;BME280;16357;52.188;7.838;2023-02-12T09:57:35;103228.69;;;11.25;65.05
29371;BME280;16357;52.188;7.838;2023-02-12T10:00:06;103225.91;;;11.27;65.08
29371;BME280;16357;52.188;7.838;2023-02-12T10:02:35;103227.63;;;11.28;65.28
29371;BME280;16357;52.188;7.838;2023-02-12T10:05:04;103232.16;;;11.27;65.23
29371;BME280;16357;52.188;7.838;2023-02-12T10:07:44;103236.34;;;11.31;65.36
29371;BME280;16357;52.188;7.838;2023-02-12T10:13:03;103225.22;;;11.37;65.95
29371;BME280;16357;52.188;7.838;2023-02-12T10:15:41;103229.22;;;11.45;66.07
29371;BME280;16357;52.188;7.838;2023-02-12T10:18:41;103226.88;;;11.53;65.86
29371;BME280;16357;52.188;7.838;2023-02-12T10:24:05;103223.94;;;11.70;65.76
29371;BME280;16357;52.188;7.838;2023-02-12T10:26:40;103222.56;;;11.77;65.49
29371;BME280;16357;52.188;7.838;2023-02-12T10:29:13;103222.81;;;11.87;65.45
29371;BME280;16357;52.188;7.838;2023-02-12T10:31:43;103225.97;;;11.94;64.99
29371;BME280;16357;52.188;7.838;2023-02-12T10:34:15;103220.16;;;12.00;64.85
29371;BME280;16357;52.188;7.838;2023-02-12T10:36:48;103221.47;;;12.07;64.67
29371;BME280;16357;52.188;7.838;2023-02-12T10:39:26;103216.66;;;12.12;64.09
29371;BME280;16357;52.188;7.838;2023-02-12T10:42:13;103217.28;;;12.16;63.69
29371;BME280;16357;52.188;7.838;2023-02-12T10:44:41;103215.44;;;12.16;63.63
29371;BME280;16357;52.188;7.838;2023-02-12T10:47:18;103209.13;;;12.17;63.79
29371;BME280;16357;52.188;7.838;2023-02-12T10:50:14;103207.28;;;12.18;64.14
29371;BME280;16357;52.188;7.838;2023-02-12T10:52:50;103209.53;;;12.24;64.16
29371;BME280;16357;52.188;7.838;2023-02-12T10:55:32;103203.84;;;12.28;64.06
29371;BME280;16357;52.188;7.838;2023-02-12T10:58:00;103208.78;;;12.35;63.78
29371;BME280;16357;52.188;7.838;2023-02-12T11:00:33;103210.94;;;12.42;63.81
29371;BME280;16357;52.188;7.838;2023-02-12T11:05:38;103213.53;;;12.57;63.55
29371;BME280;16357;52.188;7.838;2023-02-12T11:08:06;103199.53;;;12.64;63.20
29371;BME280;16357;52.188;7.838;2023-02-12T11:10:39;103198.00;;;12.73;63.19
29371;BME280;16357;52.188;7.838;2023-02-12T11:13:22;103202.75;;;12.82;62.99
29371;BME280;16357;52.188;7.838;2023-02-12T11:15:50;103204.84;;;12.90;62.55
29371;BME280;16357;52.188;7.838;2023-02-12T11:18:21;103206.03;;;12.99;62.68
29371;BME280;16357;52.188;7.838;2023-02-12T11:20:53;103200.09;;;13.06;62.20
29371;BME280;16357;52.188;7.838;2023-02-12T11:23:36;103202.97;;;13.16;62.17
29371;BME280;16357;52.188;7.838;2023-02-12T11:29:21;103200.03;;;13.32;61.18
29371;BME280;16357;52.188;7.838;2023-02-12T11:32:04;103189.66;;;13.38;60.74
29371;BME280;16357;52.188;7.838;2023-02-12T11:34:34;103187.47;;;13.44;60.49
29371;BME280;16357;52.188;7.838;2023-02-12T11:37:01;103183.69;;;13.46;59.94
29371;BME280;16357;52.188;7.838;2023-02-12T11:39:31;103189.59;;;13.51;60.00
29371;BME280;16357;52.188;7.838;2023-02-12T11:42:14;103180.28;;;13.55;60.25
29371;BME280;16357;52.188;7.838;2023-02-12T11:44:47;103173.69;;;13.59;60.05
29371;BME280;16357;52.188;7.838;2023-02-12T11:47:20;103170.66;;;13.64;59.87
29371;BME280;16357;52.188;7.838;2023-02-12T11:49:51;103175.69;;;13.69;60.00
29371;BME280;16357;52.188;7.838;2023-02-12T11:52:24;103174.25;;;13.76;60.11
29371;BME280;16357;52.188;7.838;2023-02-12T11:54:55;103168.25;;;13.83;59.83
29371;BME280;16357;52.188;7.838;2023-02-12T12:00:11;103157.75;;;14.03;59.30
29371;BME280;16357;52.188;7.838;2023-02-12T12:02:42;103159.75;;;14.12;58.96
29371;BME280;16357;52.188;7.838;2023-02-12T12:05:16;103159.13;;;14.20;58.43
29371;BME280;16357;52.188;7.838;2023-02-12T12:07:47;103151.41;;;14.26;58.38
29371;BME280;16357;52.188;7.838;2023-02-12T12:12:55;103150.44;;;14.39;58.04
29371;BME280;16357;52.188;7.838;2023-02-12T12:15:31;103149.09;;;14.44;57.25
29371;BME280;16357;52.188;7.838;2023-02-12T12:18:43;103134.00;;;14.53;57.18
29371;BME280;16357;52.188;7.838;2023-02-12T12:21:38;103132.03;;;14.55;56.21
29371;BME280;16357;52.188;7.838;2023-02-12T12:24:28;103130.19;;;14.56;56.73
29371;BME280;16357;52.188;7.838;2023-02-12T12:27:08;103132.03;;;14.55;56.75
29371;BME280;16357;52.188;7.838;2023-02-12T12:29:57;103130.19;;;14.56;56.30
29371;BME280;16357;52.188;7.838;2023-02-12T12:32:28;103133.88;;;14.55;55.38
29371;BME280;16357;52.188;7.838;2023-02-12T12:34:56;103127.75;;;14.53;54.49
29371;BME280;16357;52.188;7.838;2023-02-12T12:38:06;103122.34;;;14.53;55.30
29371;BME280;16357;52.188;7.838;2023-02-12T12:43:25;103115.09;;;14.53;54.56
29371;BME280;16357;52.188;7.838;2023-02-12T12:46:03;103109.31;;;14.58;55.25
29371;BME280;16357;52.188;7.838;2023-02-12T12:48:55;103104.91;;;14.57;54.72
29371;BME280;16357;52.188;7.838;2023-02-12T12:56:57;103103.16;;;14.44;53.08
29371;BME280;16357;52.188;7.838;2023-02-12T13:05:30;103088.44;;;14.26;53.25
29371;BME280;16357;52.188;7.838;2023-02-12T13:08:05;103086.00;;;14.23;53.27
29371;BME280;16357;52.188;7.838;2023-02-12T13:13:35;103076.78;;;14.25;53.64
29371;BME280;16357;52.188;7.838;2023-02-12T13:19:00;103077.03;;;14.34;53.26
29371;BME280;16357;52.188;7.838;2023-02-12T13:22:18;103080.34;;;14.37;53.20
29371;BME280;16357;52.188;7.838;2023-02-12T13:27:24;103080.47;;;14.47;52.76
29371;BME280;16357;52.188;7.838;2023-02-12T13:29:53;103078.50;;;14.49;51.90
29371;BME280;16357;52.188;7.838;2023-02-12T13:32:27;103077.38;;;14.52;52.00
29371;BME280;16357;52.188;7.838;2023-02-12T13:35:04;103076.31;;;14.54;51.72
29371;BME280;16357;52.188;7.838;2023-02-12T13:37:37;103075.47;;;14.54;51.68
29371;BME280;16357;52.188;7.838;2023-02-12T13:40:05;103078.16;;;14.54;51.65
29371;BME280;16357;52.188;7.838;2023-02-12T13:53:44;103090.78;;;14.53;52.66
29371;BME280;16357;52.188;7.838;2023-02-12T13:59:00;103080.47;;;14.47;51.82
29371;BME280;16357;52.188;7.838;2023-02-12T14:01:44;103077.88;;;14.45;52.12
29371;BME280;16357;52.188;7.838;2023-02-12T14:07:05;103081.22;;;14.38;52.11
29371;BME280;16357;52.188;7.838;2023-02-12T14:09:43;103080.59;;;14.34;52.27
29371;BME280;16357;52.188;7.838;2023-02-12T14:12:34;103089.69;;;14.33;51.84
29371;BME280;16357;52.188;7.838;2023-02-12T14:20:30;103085.00;;;14.24;51.72
29371;BME280;16357;52.188;7.838;2023-02-12T14:26:04;103082.31;;;14.13;51.39
29371;BME280;16357;52.188;7.838;2023-02-12T14:28:46;103079.13;;;14.08;52.02
29371;BME280;16357;52.188;7.838;2023-02-12T14:33:45;103083.16;;;14.02;51.80
29371;BME280;16357;52.188;7.838;2023-02-12T14:36:13;103075.31;;;13.99;52.13
29371;BME280;16357;52.188;7.838;2023-02-12T14:41:28;103076.16;;;13.99;51.92
29371;BME280;16357;52.188;7.838;2023-02-12T14:47:00;103073.47;;;13.99;52.01
29371;BME280;16357;52.188;7.838;2023-02-12T14:49:47;103072.47;;;14.00;52.23
29371;BME280;16357;52.188;7.838;2023-02-12T14:52:19;103075.19;;;14.00;52.08
29371;BME280;16357;52.188;7.838;2023-02-12T14:54:53;103065.13;;;14.02;52.00
29371;BME280;16357;52.188;7.838;2023-02-12T14:59:54;103065.03;;;14.04;51.83
29371;BME280;16357;52.188;7.838;2023-02-12T15:02:27;103064.88;;;14.05;51.91
29371;BME280;16357;52.188;7.838;2023-02-12T15:05:03;103064.88;;;14.05;51.94
29371;BME280;16357;52.188;7.838;2023-02-12T15:07:36;103065.63;;;14.08;52.08
29371;BME280;16357;52.188;7.838;2023-02-12T15:10:07;103060.38;;;14.06;52.11
29371;BME280;16357;52.188;7.838;2023-02-12T15:18:08;103063.66;;;14.10;52.09